createdAt,value
2022-08-25T00:00:15.437Z,45.10
2022-08-25T00:02:45.546Z,45.32
2022-08-25T00:05:23.973Z,45.32
2022-08-25T00:07:50.521Z,45.31
2022-08-25T00:10:17.198Z,45.36
2022-08-25T00:12:44.051Z,45.17
2022-08-25T00:15:11.120Z,45.35
2022-08-25T00:17:37.775Z,45.47
2022-08-25T00:20:05.462Z,45.10
2022-08-25T00:22:32.023Z,45.29
2022-08-25T00:24:58.508Z,45.49
2022-08-25T00:27:25.914Z,45.46
2022-08-25T00:29:52.423Z,45.59
2022-08-25T00:32:19.651Z,45.37
2022-08-25T00:34:46.802Z,45.38
2022-08-25T00:37:13.449Z,45.52
2022-08-25T00:39:40.061Z,45.39
2022-08-25T00:42:16.142Z,45.51
2022-08-25T00:44:44.065Z,45.60
2022-08-25T00:47:10.947Z,45.96
2022-08-25T00:49:42.629Z,45.67
2022-08-25T00:52:14.356Z,46.02
2022-08-25T00:54:47.502Z,45.90
2022-08-25T00:57:25.498Z,45.95
2022-08-25T01:00:01.861Z,46.10
2022-08-25T01:02:28.452Z,46.01
2022-08-25T01:04:55.329Z,45.60
2022-08-25T01:07:23.038Z,46.00
2022-08-25T01:09:52.558Z,45.80
2022-08-25T01:12:19.358Z,45.75
2022-08-25T01:17:45.212Z,45.88
2022-08-25T01:20:12.684Z,45.99
2022-08-25T01:22:39.608Z,45.82
2022-08-25T01:25:33.973Z,46.23
2022-08-25T01:28:00.547Z,45.98
2022-08-25T01:30:27.962Z,46.09
2022-08-25T01:32:54.480Z,46.07
2022-08-25T01:35:32.052Z,45.93
2022-08-25T01:38:00.380Z,46.34
2022-08-25T01:40:27.511Z,46.15
2022-08-25T01:43:22.432Z,46.29
2022-08-25T01:45:49.535Z,46.14
2022-08-25T01:48:16.904Z,46.20
2022-08-25T01:50:44.186Z,46.01
2022-08-25T01:53:28.185Z,46.20
2022-08-25T01:56:01.871Z,46.47
2022-08-25T01:58:35.694Z,46.37
2022-08-25T02:01:09.585Z,46.14
2022-08-25T02:03:38.724Z,46.30
2022-08-25T02:06:11.182Z,46.34
2022-08-25T02:08:38.301Z,46.31
2022-08-25T02:11:05.213Z,47.35
2022-08-25T02:13:32.478Z,48.05
2022-08-25T02:16:01.110Z,48.29
2022-08-25T02:18:27.701Z,48.83
2022-08-25T02:23:33.245Z,48.99
2022-08-25T02:25:59.753Z,49.33
2022-08-25T02:28:26.436Z,49.33
2022-08-25T02:30:53.174Z,49.44
2022-08-25T02:36:09.145Z,49.73
2022-08-25T02:38:36.158Z,49.72
2022-08-25T02:41:11.901Z,50.15
2022-08-25T02:43:39.659Z,49.91
2022-08-25T02:46:06.352Z,49.88
2022-08-25T02:48:33.598Z,50.05
2022-08-25T02:51:10.465Z,49.91
2022-08-25T02:53:41.815Z,50.08
2022-08-25T02:56:10.504Z,49.97
2022-08-25T02:58:38.595Z,49.95
2022-08-25T03:01:06.908Z,49.91
2022-08-25T03:03:38.826Z,50.19
2022-08-25T03:06:11.324Z,50.48
2022-08-25T03:11:19.221Z,50.10
2022-08-25T03:13:46.319Z,50.25
2022-08-25T03:16:13.037Z,50.35
2022-08-25T03:21:22.801Z,49.98
2022-08-25T03:23:49.448Z,50.30
2022-08-25T03:26:34.543Z,50.22
2022-08-25T03:29:05.435Z,50.30
2022-08-25T03:31:44.511Z,50.32
2022-08-25T03:34:12.826Z,50.33
2022-08-25T03:36:40.007Z,50.29
2022-08-25T03:39:08.446Z,50.23
2022-08-25T03:41:35.539Z,49.93
2022-08-25T03:44:04.063Z,50.18
2022-08-25T03:46:34.537Z,50.20
2022-08-25T03:49:04.654Z,50.08
2022-08-25T03:51:33.827Z,50.19
2022-08-25T03:54:01.788Z,50.18
2022-08-25T03:56:28.393Z,50.26
2022-08-25T03:58:55.967Z,50.23
2022-08-25T04:01:23.878Z,49.90
2022-08-25T04:03:50.769Z,50.04
2022-08-25T04:06:18.690Z,50.05
2022-08-25T04:08:45.754Z,50.08
2022-08-25T04:11:24.027Z,49.85
2022-08-25T04:13:52.244Z,50.04
2022-08-25T04:19:22.301Z,49.72
2022-08-25T04:21:49.678Z,49.79
2022-08-25T04:24:16.752Z,49.74
2022-08-25T04:26:46.953Z,49.53
2022-08-25T04:29:15.108Z,49.53
2022-08-25T04:31:43.915Z,49.38
2022-08-25T04:34:28.913Z,49.43
2022-08-25T04:36:56.783Z,49.43
2022-08-25T04:39:23.610Z,49.05
2022-08-25T04:44:40.188Z,48.99
2022-08-25T04:47:06.786Z,48.83
2022-08-25T04:49:33.334Z,48.94
2022-08-25T04:52:00.125Z,48.53
2022-08-25T04:54:28.087Z,48.50
2022-08-25T04:56:58.389Z,48.74
2022-08-25T04:59:30.222Z,48.39
2022-08-25T05:01:58.774Z,48.47
2022-08-25T05:04:28.051Z,48.23
2022-08-25T05:06:56.459Z,48.12
2022-08-25T05:09:23.867Z,47.78
2022-08-25T05:11:51.992Z,47.75
2022-08-25T05:14:21.680Z,47.62
2022-08-25T05:16:53.358Z,47.48
2022-08-25T05:19:20.033Z,47.35
2022-08-25T05:21:46.556Z,47.37
2022-08-25T05:24:13.031Z,47.07
2022-08-25T05:26:39.851Z,46.88
2022-08-25T05:29:07.377Z,46.96
2022-08-25T05:31:36.430Z,46.74
2022-08-25T05:34:08.966Z,46.62
2022-08-25T05:36:35.905Z,46.62
2022-08-25T05:39:04.018Z,46.37
2022-08-25T05:41:31.180Z,46.36
2022-08-25T05:43:57.710Z,46.40
2022-08-25T05:46:25.217Z,46.22
2022-08-25T05:48:52.558Z,46.12
2022-08-25T05:51:20.148Z,45.97
2022-08-25T05:53:51.302Z,46.01
2022-08-25T05:56:18.649Z,45.64
2022-08-25T05:58:46.054Z,45.84
2022-08-25T06:01:40.183Z,46.03
2022-08-25T06:04:10.558Z,45.68
2022-08-25T06:06:39.238Z,46.00
2022-08-25T06:09:08.692Z,45.77
2022-08-25T06:11:37.257Z,45.55
2022-08-25T06:14:04.788Z,45.59
2022-08-25T06:16:31.651Z,45.43
2022-08-25T06:18:58.298Z,45.34
2022-08-25T06:21:25.413Z,45.40
2022-08-25T06:23:52.824Z,45.25
2022-08-25T06:26:21.035Z,45.41
2022-08-25T06:28:49.386Z,45.01
2022-08-25T06:31:16.018Z,44.96
2022-08-25T06:33:44.008Z,44.78
2022-08-25T06:36:10.527Z,44.79
2022-08-25T06:38:37.092Z,44.50
2022-08-25T06:41:05.433Z,44.34
2022-08-25T06:43:33.778Z,44.37
2022-08-25T06:46:18.704Z,44.38
2022-08-25T06:48:45.316Z,44.25
2022-08-25T06:51:14.791Z,44.39
2022-08-25T06:53:42.832Z,44.30
2022-08-25T06:56:10.205Z,44.13
2022-08-25T06:58:37.017Z,44.21
2022-08-25T07:01:13.440Z,44.13
2022-08-25T07:03:43.738Z,44.32
2022-08-25T07:06:10.650Z,44.03
2022-08-25T07:08:37.479Z,44.17
2022-08-25T07:11:08.470Z,44.18
2022-08-25T07:13:43.988Z,44.13
2022-08-25T07:16:11.512Z,44.12
2022-08-25T07:18:38.447Z,44.02
2022-08-25T07:21:05.131Z,43.96
2022-08-25T07:23:36.243Z,43.99
2022-08-25T07:26:36.725Z,43.99
2022-08-25T07:29:02.367Z,44.11
2022-08-25T07:31:30.188Z,43.90
2022-08-25T07:34:16.678Z,43.72
2022-08-25T07:36:44.621Z,43.88
2022-08-25T07:39:11.982Z,43.75
2022-08-25T07:41:40.865Z,43.61
2022-08-25T07:44:10.079Z,43.44
2022-08-25T07:46:36.919Z,43.50
2022-08-25T07:49:04.904Z,43.55
2022-08-25T07:51:44.138Z,43.31
2022-08-25T07:54:33.920Z,43.44
2022-08-25T07:57:05.640Z,43.27
2022-08-25T07:59:39.602Z,43.13
2022-08-25T08:02:08.410Z,43.07
2022-08-25T08:04:36.887Z,43.03
2022-08-25T08:07:03.897Z,42.91
2022-08-25T08:09:31.308Z,42.88
2022-08-25T08:11:57.850Z,42.40
2022-08-25T08:14:24.569Z,42.54
2022-08-25T08:16:51.083Z,42.48
2022-08-25T08:19:17.863Z,42.29
2022-08-25T08:21:50.676Z,42.45
2022-08-25T08:24:40.596Z,42.08
2022-08-25T08:27:07.653Z,42.19
2022-08-25T08:29:36.234Z,42.00
2022-08-25T08:32:04.616Z,42.00
2022-08-25T08:34:33.404Z,41.59
2022-08-25T08:37:00.530Z,41.95
2022-08-25T08:39:28.058Z,41.80
2022-08-25T08:42:18.466Z,41.92
2022-08-25T08:44:44.888Z,42.07
2022-08-25T08:47:40.802Z,41.76
2022-08-25T08:50:27.785Z,41.74
2022-08-25T08:53:09.184Z,41.84
2022-08-25T08:55:48.338Z,41.67
2022-08-25T08:58:26.363Z,41.67
2022-08-25T09:00:58.242Z,41.35
2022-08-25T09:03:36.077Z,41.41
2022-08-25T09:06:13.670Z,41.46
2022-08-25T09:08:44.869Z,41.58
2022-08-25T09:11:49.472Z,41.55
2022-08-25T09:14:54.573Z,41.45
2022-08-25T09:17:54.835Z,41.35
2022-08-25T09:20:51.880Z,41.14
2022-08-25T09:24:03.702Z,41.16
2022-08-25T09:26:39.719Z,41.17
2022-08-25T09:29:16.359Z,41.43
2022-08-25T09:31:44.871Z,42.36
2022-08-25T09:34:24.923Z,42.16
2022-08-25T09:36:53.449Z,41.57
2022-08-25T09:39:21.313Z,41.64
2022-08-25T09:41:56.009Z,41.25
2022-08-25T09:44:27.324Z,41.62
2022-08-25T09:46:57.370Z,41.52
2022-08-25T09:49:51.045Z,42.31
2022-08-25T09:52:32.779Z,42.46
2022-08-25T09:55:05.717Z,40.84
2022-08-25T09:57:44.081Z,41.28
2022-08-25T10:00:14.188Z,40.43
2022-08-25T10:02:41.589Z,39.92
2022-08-25T10:05:35.140Z,39.66
2022-08-25T10:08:10.256Z,40.21
2022-08-25T10:10:46.124Z,39.95
2022-08-25T10:13:17.432Z,40.00
2022-08-25T10:16:20.182Z,39.32
2022-08-25T10:19:01.226Z,39.99
2022-08-25T10:21:28.115Z,39.45
2022-08-25T10:23:58.898Z,38.92
2022-08-25T10:26:35.010Z,39.88
2022-08-25T10:29:26.479Z,40.20
2022-08-25T10:32:06.253Z,40.67
2022-08-25T10:34:51.399Z,40.75
2022-08-25T10:37:36.712Z,41.22
2022-08-25T10:40:21.756Z,41.23
2022-08-25T10:43:17.183Z,41.57
2022-08-25T10:45:52.611Z,41.77
2022-08-25T10:48:34.947Z,42.03
2022-08-25T10:51:19.665Z,41.95
2022-08-25T10:54:16.235Z,42.17
2022-08-25T10:57:01.773Z,42.26
2022-08-25T10:59:47.425Z,42.40
2022-08-25T11:02:32.270Z,42.41
2022-08-25T11:05:17.539Z,42.24
2022-08-25T11:07:58.043Z,42.29
2022-08-25T11:10:38.166Z,42.21
2022-08-25T11:13:08.306Z,42.20
2022-08-25T11:16:06.558Z,42.15
2022-08-25T11:18:35.939Z,42.14
2022-08-25T11:21:11.928Z,42.09
2022-08-25T11:23:51.110Z,42.33
2022-08-25T11:26:31.840Z,41.84
2022-08-25T11:29:12.499Z,41.94
2022-08-25T11:31:49.597Z,42.08
2022-08-25T11:34:20.399Z,42.19
2022-08-25T11:36:59.797Z,42.55
2022-08-25T11:39:33.988Z,42.76
2022-08-25T11:42:04.192Z,42.24
2022-08-25T11:44:38.205Z,41.95
2022-08-25T11:47:25.893Z,43.44
2022-08-25T11:50:00.913Z,43.31
2022-08-25T11:52:34.743Z,43.62
2022-08-25T11:55:16.603Z,43.36
2022-08-25T11:57:45.697Z,43.22
2022-08-25T12:00:44.610Z,42.96
2022-08-25T12:03:32.610Z,42.90
2022-08-25T12:06:29.504Z,42.56
2022-08-25T12:09:05.586Z,42.36
2022-08-25T12:11:37.858Z,42.21
2022-08-25T12:14:28.499Z,42.37
2022-08-25T12:16:55.138Z,42.46
2022-08-25T12:19:37.979Z,42.46
2022-08-25T12:22:04.679Z,42.63
2022-08-25T12:24:47.996Z,42.66
2022-08-25T12:27:40.262Z,42.71
2022-08-25T12:30:20.680Z,42.60
2022-08-25T12:32:50.680Z,42.67
2022-08-25T12:35:32.791Z,42.52
2022-08-25T12:38:09.040Z,42.66
2022-08-25T12:40:45.715Z,42.71
2022-08-25T12:43:37.532Z,42.62
2022-08-25T12:46:26.350Z,42.49
2022-08-25T12:49:00.491Z,42.86
2022-08-25T12:51:28.009Z,42.57
2022-08-25T12:54:11.460Z,42.76
2022-08-25T12:56:47.813Z,42.90
2022-08-25T12:59:31.560Z,42.81
2022-08-25T13:02:32.991Z,42.60
2022-08-25T13:05:05.273Z,42.52
2022-08-25T13:07:49.979Z,42.80
2022-08-25T13:10:25.933Z,42.92
2022-08-25T13:13:00.487Z,42.72
2022-08-25T13:15:41.064Z,42.89
2022-08-25T13:18:29.783Z,42.57
2022-08-25T13:21:19.560Z,42.87
2022-08-25T13:23:49.953Z,42.89
2022-08-25T13:26:23.647Z,42.80
2022-08-25T13:29:10.776Z,42.65
2022-08-25T13:31:49.960Z,42.77
2022-08-25T13:34:22.510Z,42.49
2022-08-25T13:37:08.475Z,42.48
2022-08-25T13:42:28.760Z,42.37
2022-08-25T13:44:55.836Z,42.35
2022-08-25T13:47:43.475Z,42.35
2022-08-25T13:50:18.514Z,42.65
2022-08-25T13:53:02.940Z,42.40
2022-08-25T13:55:50.769Z,42.44
2022-08-25T13:58:39.366Z,42.55
2022-08-25T14:01:49.231Z,42.44
2022-08-25T14:04:24.209Z,42.00
2022-08-25T14:07:19.396Z,42.50
2022-08-25T14:10:27.249Z,42.42
2022-08-25T14:13:30.982Z,42.66
2022-08-25T14:16:08.990Z,42.46
2022-08-25T14:18:35.947Z,42.50
2022-08-25T14:21:09.968Z,42.34
2022-08-25T14:23:38.690Z,42.54
2022-08-25T14:26:06.382Z,42.49
2022-08-25T14:28:33.475Z,42.27
2022-08-25T14:31:05.129Z,42.25
2022-08-25T14:33:43.104Z,42.82
2022-08-25T14:36:10.298Z,42.65
2022-08-25T14:38:39.027Z,42.58
2022-08-25T14:43:39.517Z,42.75
2022-08-25T14:46:18.761Z,43.23
2022-08-25T14:48:49.740Z,43.24
2022-08-25T14:51:16.593Z,43.50
2022-08-25T14:53:44.013Z,43.20
2022-08-25T14:56:10.641Z,43.50
2022-08-25T14:58:51.521Z,43.56
2022-08-25T15:01:28.480Z,44.07
2022-08-25T15:04:01.555Z,43.84
2022-08-25T15:06:28.814Z,43.80
2022-08-25T15:09:08.521Z,44.44
2022-08-25T15:11:36.556Z,44.02
2022-08-25T15:14:10.664Z,44.52
2022-08-25T15:16:41.959Z,44.31
2022-08-25T15:19:11.752Z,44.27
2022-08-25T15:21:38.638Z,44.72
2022-08-25T15:24:07.121Z,44.80
2022-08-25T15:26:40.234Z,44.66
2022-08-25T15:29:06.920Z,45.09
2022-08-25T15:31:35.506Z,44.93
2022-08-25T15:34:02.148Z,45.01
2022-08-25T15:36:29.064Z,44.90
2022-08-25T15:38:55.638Z,44.67
2022-08-25T15:41:27.070Z,44.51
2022-08-25T15:43:54.719Z,45.00
2022-08-25T15:46:24.991Z,44.56
2022-08-25T15:48:51.625Z,44.77
2022-08-25T15:51:18.921Z,44.59
2022-08-25T15:53:46.098Z,44.64
2022-08-25T15:56:26.519Z,44.43
2022-08-25T15:58:54.081Z,44.43
2022-08-25T16:01:24.831Z,44.70
2022-08-25T16:03:52.076Z,44.28
2022-08-25T16:06:19.525Z,44.47
2022-08-25T16:08:46.195Z,44.22
2022-08-25T16:11:19.163Z,44.29
2022-08-25T16:13:47.609Z,44.51
2022-08-25T16:16:16.268Z,44.73
2022-08-25T16:18:43.870Z,44.16
2022-08-25T16:21:12.808Z,44.68
2022-08-25T16:23:40.346Z,44.14
2022-08-25T16:26:09.388Z,44.41
2022-08-25T16:28:38.174Z,44.60
2022-08-25T16:31:05.738Z,44.41
2022-08-25T16:33:35.150Z,44.57
2022-08-25T16:36:09.378Z,44.25
2022-08-25T16:38:37.342Z,44.25
2022-08-25T16:41:10.878Z,44.39
2022-08-25T16:43:38.522Z,44.32
2022-08-25T16:46:08.645Z,44.59
2022-08-25T16:48:38.017Z,44.51
2022-08-25T16:51:17.123Z,44.25
2022-08-25T16:54:04.845Z,44.65
2022-08-25T16:56:34.335Z,44.31
2022-08-25T16:59:02.413Z,44.76
2022-08-25T17:01:31.258Z,44.45
2022-08-25T17:03:58.380Z,44.79
2022-08-25T17:06:27.722Z,44.52
2022-08-25T17:08:55.475Z,44.68
2022-08-25T17:11:26.791Z,44.75
2022-08-25T17:13:57.194Z,44.40
2022-08-25T17:16:27.989Z,44.68
2022-08-25T17:18:55.476Z,45.02
2022-08-25T17:21:24.352Z,46.20
2022-08-25T17:23:52.616Z,45.73
2022-08-25T17:26:19.707Z,46.45
2022-08-25T17:28:54.458Z,46.53
2022-08-25T17:31:24.092Z,46.85
2022-08-25T17:33:52.272Z,46.94
2022-08-25T17:36:19.880Z,46.79
2022-08-25T17:38:54.181Z,47.22
2022-08-25T17:41:20.942Z,47.04
2022-08-25T17:43:47.530Z,47.35
2022-08-25T17:46:15.215Z,47.28
2022-08-25T17:48:43.875Z,47.20
2022-08-25T17:51:11.320Z,47.40
2022-08-25T17:53:38.579Z,47.83
2022-08-25T17:56:08.370Z,47.50
2022-08-25T17:58:36.588Z,47.66
2022-08-25T18:01:04.230Z,47.58
2022-08-25T18:03:32.665Z,47.26
2022-08-25T18:05:59.634Z,47.31
2022-08-25T18:08:29.896Z,47.45
2022-08-25T18:11:01.876Z,47.67
2022-08-25T18:13:28.718Z,47.30
2022-08-25T18:15:55.334Z,47.43
2022-08-25T18:18:21.994Z,47.20
2022-08-25T18:20:51.115Z,47.58
2022-08-25T18:23:19.777Z,47.16
2022-08-25T18:25:48.381Z,47.18
2022-08-25T18:28:14.936Z,47.68
2022-08-25T18:30:42.421Z,47.48
2022-08-25T18:33:09.715Z,47.58
2022-08-25T18:35:36.281Z,48.03
2022-08-25T18:38:24.092Z,47.55
2022-08-25T18:40:55.806Z,47.95
2022-08-25T18:43:22.300Z,47.83
2022-08-25T18:45:48.912Z,48.18
2022-08-25T18:48:17.014Z,47.80
2022-08-25T18:50:46.858Z,48.11
2022-08-25T18:53:18.375Z,47.98
2022-08-25T18:55:58.107Z,48.15
2022-08-25T18:58:27.028Z,48.33
2022-08-25T19:00:53.534Z,48.35
2022-08-25T19:03:23.158Z,48.26
2022-08-25T19:05:57.389Z,48.42
2022-08-25T19:08:24.815Z,47.99
2022-08-25T19:10:53.541Z,48.44
2022-08-25T19:13:22.673Z,48.21
2022-08-25T19:15:51.285Z,48.39
2022-08-25T19:18:19.333Z,48.28
2022-08-25T19:20:52.874Z,48.32
2022-08-25T19:23:19.519Z,48.35
2022-08-25T19:25:46.135Z,48.68
2022-08-25T19:28:13.507Z,48.53
2022-08-25T19:30:49.932Z,48.60
2022-08-25T19:33:42.270Z,48.82
2022-08-25T19:36:08.523Z,48.92
2022-08-25T19:38:36.590Z,48.61
2022-08-25T19:41:10.590Z,48.68
2022-08-25T19:43:55.826Z,48.75
2022-08-25T19:46:32.348Z,48.62
2022-08-25T19:49:07.331Z,48.89
2022-08-25T19:51:39.166Z,48.62
2022-08-25T19:54:08.978Z,48.59
2022-08-25T19:56:36.277Z,48.65
2022-08-25T19:59:03.742Z,48.67
2022-08-25T20:01:30.595Z,48.69
2022-08-25T20:03:57.155Z,48.79
2022-08-25T20:06:23.865Z,48.65
2022-08-25T20:08:59.003Z,48.42
2022-08-25T20:11:28.909Z,48.19
2022-08-25T20:13:59.295Z,48.19
2022-08-25T20:16:29.768Z,48.37
2022-08-25T20:18:56.435Z,48.21
2022-08-25T20:21:24.022Z,48.27
2022-08-25T20:24:09.014Z,48.47
2022-08-25T20:26:36.410Z,48.16
2022-08-25T20:29:05.161Z,47.89
2022-08-25T20:31:33.431Z,47.38
2022-08-25T20:34:00.476Z,47.16
2022-08-25T20:36:29.784Z,47.13
2022-08-25T20:38:56.348Z,47.42
2022-08-25T20:41:25.842Z,47.20
2022-08-25T20:43:52.629Z,46.71
2022-08-25T20:46:19.335Z,47.02
2022-08-25T20:48:45.971Z,46.73
2022-08-25T20:51:13.178Z,46.52
2022-08-25T20:53:42.500Z,46.55
2022-08-25T20:56:10.843Z,46.35
2022-08-25T20:58:38.894Z,46.08
2022-08-25T21:01:23.058Z,45.80
2022-08-25T21:03:50.473Z,45.87
2022-08-25T21:06:17.217Z,45.56
2022-08-25T21:08:46.799Z,45.03
2022-08-25T21:11:18.148Z,44.69
2022-08-25T21:13:45.846Z,44.80
2022-08-25T21:16:12.534Z,44.98
2022-08-25T21:18:47.848Z,44.73
2022-08-25T21:21:16.663Z,44.49
2022-08-25T21:23:48.016Z,44.58
2022-08-25T21:26:23.703Z,44.44
2022-08-25T21:28:53.178Z,44.29
2022-08-25T21:31:20.777Z,44.03
2022-08-25T21:33:47.917Z,44.33
2022-08-25T21:36:16.833Z,43.96
2022-08-25T21:38:47.339Z,43.88
2022-08-25T21:41:17.105Z,43.99
2022-08-25T21:43:45.298Z,43.98
2022-08-25T21:46:16.944Z,43.70
2022-08-25T21:48:46.587Z,43.99
2022-08-25T21:51:15.894Z,44.02
2022-08-25T21:53:42.553Z,43.57
2022-08-25T21:56:17.712Z,43.57
2022-08-25T21:58:48.997Z,43.76
2022-08-25T22:01:19.490Z,43.57
2022-08-25T22:03:47.197Z,43.70
2022-08-25T22:06:14.951Z,43.63
2022-08-25T22:08:43.277Z,43.68
2022-08-25T22:11:10.661Z,43.46
2022-08-25T22:13:41.214Z,43.71
2022-08-25T22:16:11.490Z,43.73
2022-08-25T22:18:39.881Z,43.56
2022-08-25T22:21:09.668Z,43.34
2022-08-25T22:23:39.994Z,43.39
2022-08-25T22:26:11.810Z,43.29
2022-08-25T22:28:38.423Z,43.46
2022-08-25T22:31:09.991Z,43.39
2022-08-25T22:33:37.349Z,43.46
2022-08-25T22:36:37.397Z,43.07
2022-08-25T22:39:06.617Z,43.50
2022-08-25T22:41:34.165Z,43.07
2022-08-25T22:44:00.903Z,43.11
2022-08-25T22:46:32.354Z,43.07
2022-08-25T22:48:59.801Z,42.88
2022-08-25T22:51:31.450Z,43.24
2022-08-25T22:54:00.005Z,43.29
2022-08-25T22:56:30.900Z,42.92
2022-08-25T22:58:59.727Z,42.74
2022-08-25T23:01:27.224Z,42.72
2022-08-25T23:03:53.921Z,42.99
2022-08-25T23:06:24.653Z,42.94
2022-08-25T23:08:53.759Z,43.14
2022-08-25T23:11:21.862Z,42.66
2022-08-25T23:13:49.108Z,42.78
2022-08-25T23:16:16.978Z,42.74
2022-08-25T23:18:44.990Z,42.60
2022-08-25T23:21:35.123Z,42.50
2022-08-25T23:24:05.305Z,42.46
2022-08-25T23:26:33.707Z,42.55
2022-08-25T23:29:00.566Z,42.75
2022-08-25T23:31:30.017Z,42.60
2022-08-25T23:33:57.805Z,42.88
2022-08-25T23:36:24.860Z,42.75
2022-08-25T23:38:52.099Z,42.63
2022-08-25T23:41:23.479Z,42.72
2022-08-25T23:43:52.015Z,42.66
2022-08-25T23:46:21.729Z,42.80
2022-08-25T23:48:49.231Z,42.73
2022-08-25T23:51:27.263Z,42.76
2022-08-25T23:53:55.613Z,42.93
2022-08-25T23:56:23.215Z,42.40
2022-08-25T23:58:51.155Z,42.61
